Language selection

Features

My Weather Profile Weather Topics  | 

Pacific - North Coast: Past 24 Hour Conditions

 

West Moresby - 46208

03:00 AM PDT 17 September 2019Buoy position: 52.52N 132.68W
Disclaimer

This table is a summary of hourly weather conditions for the past 24 hours.
Please note that these observations might not always be representative of weather conditions over their associated marine area.

Date / Time
(PDT)
Wind(knots) Wave height(m) Wave period(s) Pressure(kPa) Air tempC) Water tempC)
17 September 2019
3:00 W 6 gust 8 2.3 8.0 99.4 14 N/A
2:00 WSW 8 gust 12 2.4 8.0 99.3 14 N/A
1:00 W 10 gust 12 2.3 8.0 99.3 14 N/A
0:00 WSW 12 gust 13 2.6 9.0 99.3 14 N/A
16 September 2019
23:00 W 13 gust 16 2.9 8.0 99.2 14 N/A
22:00 W 17 gust 22 3.3 8.0 99.2 15 N/A
21:00 W 13 gust 22 3.5 8.0 99.1 14 N/A
20:00 W 12 gust 16 3.9 8.0 99.1 14 N/A
19:00 ESE 29 gust 37 3.7 7.0 99.1 13 N/A
18:00 SE 29 gust 35 3.3 6.0 99.2 14 N/A
17:00 N/A N/A N/A N/A N/A N/A
16:00 SSE 27 gust 33 2.7 6.0 99.4 13 N/A
15:00 SSE 27 gust 33 2.5 5.0 99.6 13 N/A
14:00 SSE 25 gust 31 2.2 10.0 99.7 14 N/A
13:00 SSE 23 gust 29 2.2 10.0 99.8 14 N/A
12:00 SSE 22 gust 25 2.0 11.0 99.9 15 N/A
11:00 SSE 19 gust 23 2.0 11.0 100.1 15 N/A
10:00 S 17 gust 22 2.1 10.0 100.2 15 N/A
9:00 S 16 gust 19 2.2 11.0 100.3 15 N/A
8:00 S 13 gust 17 2.2 11.0 100.4 14 N/A
7:00 S 12 gust 13 2.0 11.0 100.4 14 N/A
6:00 SSW 8 gust 12 2.1 12.0 100.5 14 N/A
5:00 SW 8 gust 10 2.3 11.0 100.6 14 N/A
4:00 WSW 8 gust 10 2.2 10.0 100.6 14 N/A
3:00 W 8 gust 10 2.2 11.0 100.7 14 N/A

Zoom-in to make a selection

Map of Pacific - North Coast marine weather areas Middle Nomad - 46004 South Nomad - 46036 Dixon Entrance Central - 46145 South Moresby - 46147 Nanakwa Shoal - 46181 North Hecate Strait - 46183 North Nomad - 46184 South Hecate Strait - 46185 West Sea Otter - 46204 West Dixon Entrance - 46205 East Dellwood - 46207 West Moresby - 46208 Sartine Island Cape St.James Kindakun Rocks Langara Island Masset Municipal Airport Rose Spit Sandspit Airport Bella Bella Airport Bella Coola Airport Bonilla Island Cathedral Point Cumshewa Island Grey Islet Holland Rock Lucy Islands Lightstation Prince Rupert Airport
Legend:
buoy Buoy
land station Land Station

Pacific - North Coast Area

Another Region

What we are doing

Date modified: